sensor_id;sensor_type;location;lat;lon;timestamp;temperature;humidity
21762;DHT22;11203;50.870;20.682;2023-01-10T00:01:37;5.80;1.00
21762;DHT22;11203;50.870;20.682;2023-01-10T00:04:03;5.80;1.00
21762;DHT22;11203;50.870;20.682;2023-01-10T00:06:29;5.80;1.00
21762;DHT22;11203;50.870;20.682;2023-01-10T00:08:55;5.70;1.00
21762;DHT22;11203;50.870;20.682;2023-01-10T00:11:23;5.70;1.00
21762;DHT22;11203;50.870;20.682;2023-01-10T00:14:07;5.70;1.00
21762;DHT22;11203;50.870;20.682;2023-01-10T00:16:34;5.70;10.80
21762;DHT22;11203;50.870;20.682;2023-01-10T00:19:01;5.60;70.40
21762;DHT22;11203;50.870;20.682;2023-01-10T00:21:28;5.60;99.90
21762;DHT22;11203;50.870;20.682;2023-01-10T00:23:55;5.60;99.90
21762;DHT22;11203;50.870;20.682;2023-01-10T00:26:40;5.70;99.90
21762;DHT22;11203;50.870;20.682;2023-01-10T00:29:06;5.70;99.90
21762;DHT22;11203;50.870;20.682;2023-01-10T00:31:32;5.70;99.90
21762;DHT22;11203;50.870;20.682;2023-01-10T00:33:58;5.70;99.90
21762;DHT22;11203;50.870;20.682;2023-01-10T00:36:24;5.70;99.90
21762;DHT22;11203;50.870;20.682;2023-01-10T00:38:50;5.70;99.90
21762;DHT22;11203;50.870;20.682;2023-01-10T00:41:17;5.70;99.90
21762;DHT22;11203;50.870;20.682;2023-01-10T00:44:02;5.70;99.90
21762;DHT22;11203;50.870;20.682;2023-01-10T00:46:31;5.60;99.90
21762;DHT22;11203;50.870;20.682;2023-01-10T00:48:57;5.70;99.90
21762;DHT22;11203;50.870;20.682;2023-01-10T00:51:23;5.70;99.90
21762;DHT22;11203;50.870;20.682;2023-01-10T00:53:49;5.70;99.90
21762;DHT22;11203;50.870;20.682;2023-01-10T00:56:15;5.70;99.90
21762;DHT22;11203;50.870;20.682;2023-01-10T00:58:41;5.70;99.90
21762;DHT22;11203;50.870;20.682;2023-01-10T01:01:09;5.70;99.90
21762;DHT22;11203;50.870;20.682;2023-01-10T01:03:35;5.70;99.90
21762;DHT22;11203;50.870;20.682;2023-01-10T01:06:06;5.70;99.90
21762;DHT22;11203;50.870;20.682;2023-01-10T01:08:32;5.70;99.90
21762;DHT22;11203;50.870;20.682;2023-01-10T01:10:59;5.70;99.90
21762;DHT22;11203;50.870;20.682;2023-01-10T01:13:25;5.70;99.90
21762;DHT22;11203;50.870;20.682;2023-01-10T01:15:51;5.70;99.90
21762;DHT22;11203;50.870;20.682;2023-01-10T01:18:19;5.70;99.90
21762;DHT22;11203;50.870;20.682;2023-01-10T01:20:47;5.70;99.90
21762;DHT22;11203;50.870;20.682;2023-01-10T01:23:18;5.70;99.90
21762;DHT22;11203;50.870;20.682;2023-01-10T01:25:48;5.70;99.90
21762;DHT22;11203;50.870;20.682;2023-01-10T01:28:14;5.60;99.90
21762;DHT22;11203;50.870;20.682;2023-01-10T01:30:41;5.60;99.90
21762;DHT22;11203;50.870;20.682;2023-01-10T01:33:07;5.60;99.90
21762;DHT22;11203;50.870;20.682;2023-01-10T01:35:33;5.60;99.90
21762;DHT22;11203;50.870;20.682;2023-01-10T01:38:00;5.70;99.90
21762;DHT22;11203;50.870;20.682;2023-01-10T01:40:26;5.60;99.90
21762;DHT22;11203;50.870;20.682;2023-01-10T01:42:52;5.60;99.90
21762;DHT22;11203;50.870;20.682;2023-01-10T01:45:28;5.70;99.90
21762;DHT22;11203;50.870;20.682;2023-01-10T01:48:12;5.60;99.90
21762;DHT22;11203;50.870;20.682;2023-01-10T01:53:24;5.60;99.90
21762;DHT22;11203;50.870;20.682;2023-01-10T01:56:00;5.60;99.90
21762;DHT22;11203;50.870;20.682;2023-01-10T01:58:56;5.70;99.90
21762;DHT22;11203;50.870;20.682;2023-01-10T02:01:27;5.60;99.90
21762;DHT22;11203;50.870;20.682;2023-01-10T02:04:00;5.60;99.90
21762;DHT22;11203;50.870;20.682;2023-01-10T02:06:32;5.60;99.90
21762;DHT22;11203;50.870;20.682;2023-01-10T02:09:15;5.70;99.90
21762;DHT22;11203;50.870;20.682;2023-01-10T02:11:44;5.60;99.90
21762;DHT22;11203;50.870;20.682;2023-01-10T02:14:11;5.70;99.90
21762;DHT22;11203;50.870;20.682;2023-01-10T02:16:39;5.70;99.90
21762;DHT22;11203;50.870;20.682;2023-01-10T02:19:35;5.70;99.90
21762;DHT22;11203;50.870;20.682;2023-01-10T02:31:18;5.60;99.90
21762;DHT22;11203;50.870;20.682;2023-01-10T02:36:59;5.70;99.90
21762;DHT22;11203;50.870;20.682;2023-01-10T02:45:11;5.70;99.90
21762;DHT22;11203;50.870;20.682;2023-01-10T02:47:55;5.70;99.90
21762;DHT22;11203;50.870;20.682;2023-01-10T02:53:43;5.70;99.90
21762;DHT22;11203;50.870;20.682;2023-01-10T03:07:50;5.70;99.90
21762;DHT22;11203;50.870;20.682;2023-01-10T03:10:46;5.70;99.90
21762;DHT22;11203;50.870;20.682;2023-01-10T03:13:20;5.60;99.90
21762;DHT22;11203;50.870;20.682;2023-01-10T03:15:53;5.60;99.90
21762;DHT22;11203;50.870;20.682;2023-01-10T03:18:29;5.60;99.90
21762;DHT22;11203;50.870;20.682;2023-01-10T03:20:58;5.60;99.90
21762;DHT22;11203;50.870;20.682;2023-01-10T03:23:28;5.60;99.90
21762;DHT22;11203;50.870;20.682;2023-01-10T03:25:57;5.60;99.90
21762;DHT22;11203;50.870;20.682;2023-01-10T03:28:54;5.70;99.90
21762;DHT22;11203;50.870;20.682;2023-01-10T03:31:29;5.60;99.90
21762;DHT22;11203;50.870;20.682;2023-01-10T03:33:57;5.60;99.90
21762;DHT22;11203;50.870;20.682;2023-01-10T03:36:40;5.60;99.90
21762;DHT22;11203;50.870;20.682;2023-01-10T03:39:39;5.60;99.90
21762;DHT22;11203;50.870;20.682;2023-01-10T03:42:14;5.60;99.90
21762;DHT22;11203;50.870;20.682;2023-01-10T03:44:54;5.60;99.90
21762;DHT22;11203;50.870;20.682;2023-01-10T03:47:38;5.50;99.90
21762;DHT22;11203;50.870;20.682;2023-01-10T03:50:27;5.50;99.90
21762;DHT22;11203;50.870;20.682;2023-01-10T03:52:55;5.50;99.90
21762;DHT22;11203;50.870;20.682;2023-01-10T03:55:25;5.50;99.90
21762;DHT22;11203;50.870;20.682;2023-01-10T03:57:52;5.50;99.90
21762;DHT22;11203;50.870;20.682;2023-01-10T04:00:19;5.50;99.90
21762;DHT22;11203;50.870;20.682;2023-01-10T04:02:45;5.50;99.90
21762;DHT22;11203;50.870;20.682;2023-01-10T04:05:11;5.50;99.90
21762;DHT22;11203;50.870;20.682;2023-01-10T04:07:38;5.50;99.90
21762;DHT22;11203;50.870;20.682;2023-01-10T04:10:05;5.40;99.90
21762;DHT22;11203;50.870;20.682;2023-01-10T04:12:31;5.40;99.90
21762;DHT22;11203;50.870;20.682;2023-01-10T04:14:58;5.40;99.90
21762;DHT22;11203;50.870;20.682;2023-01-10T04:17:24;5.40;99.90
21762;DHT22;11203;50.870;20.682;2023-01-10T04:19:50;5.40;99.90
21762;DHT22;11203;50.870;20.682;2023-01-10T04:22:16;5.40;99.90
21762;DHT22;11203;50.870;20.682;2023-01-10T04:24:42;5.40;99.90
21762;DHT22;11203;50.870;20.682;2023-01-10T04:27:09;5.40;99.90
21762;DHT22;11203;50.870;20.682;2023-01-10T04:29:35;5.40;99.90
21762;DHT22;11203;50.870;20.682;2023-01-10T04:32:01;5.30;99.90
21762;DHT22;11203;50.870;20.682;2023-01-10T04:34:27;5.30;99.90
21762;DHT22;11203;50.870;20.682;2023-01-10T04:36:53;5.30;99.90
21762;DHT22;11203;50.870;20.682;2023-01-10T04:39:19;5.30;99.90
21762;DHT22;11203;50.870;20.682;2023-01-10T04:41:45;5.30;99.90
21762;DHT22;11203;50.870;20.682;2023-01-10T04:44:11;5.20;99.90
21762;DHT22;11203;50.870;20.682;2023-01-10T04:46:37;5.20;99.90
21762;DHT22;11203;50.870;20.682;2023-01-10T04:49:04;5.20;94.10
21762;DHT22;11203;50.870;20.682;2023-01-10T04:51:30;5.20;43.30
21762;DHT22;11203;50.870;20.682;2023-01-10T04:53:56;5.20;99.90
21762;DHT22;11203;50.870;20.682;2023-01-10T04:56:22;5.10;97.00
21762;DHT22;11203;50.870;20.682;2023-01-10T04:58:49;5.10;61.10
21762;DHT22;11203;50.870;20.682;2023-01-10T05:01:22;5.10;29.60
21762;DHT22;11203;50.870;20.682;2023-01-10T05:03:53;5.10;56.80
21762;DHT22;11203;50.870;20.682;2023-01-10T05:06:20;5.10;89.10
21762;DHT22;11203;50.870;20.682;2023-01-10T05:08:47;5.00;55.20
21762;DHT22;11203;50.870;20.682;2023-01-10T05:11:13;5.00;51.30
21762;DHT22;11203;50.870;20.682;2023-01-10T05:13:40;5.00;24.50
21762;DHT22;11203;50.870;20.682;2023-01-10T05:16:07;5.00;24.10
21762;DHT22;11203;50.870;20.682;2023-01-10T05:18:34;5.00;43.10
21762;DHT22;11203;50.870;20.682;2023-01-10T05:21:01;4.90;99.90
21762;DHT22;11203;50.870;20.682;2023-01-10T05:23:31;4.90;99.90
21762;DHT22;11203;50.870;20.682;2023-01-10T05:26:07;4.90;99.90
21762;DHT22;11203;50.870;20.682;2023-01-10T05:28:35;4.90;99.90
21762;DHT22;11203;50.870;20.682;2023-01-10T05:31:03;4.90;99.90
21762;DHT22;11203;50.870;20.682;2023-01-10T05:33:31;4.90;99.90
21762;DHT22;11203;50.870;20.682;2023-01-10T05:36:00;4.90;99.90
21762;DHT22;11203;50.870;20.682;2023-01-10T05:38:30;4.90;99.90
21762;DHT22;11203;50.870;20.682;2023-01-10T05:40:57;4.90;99.90
21762;DHT22;11203;50.870;20.682;2023-01-10T05:43:25;4.90;99.90
21762;DHT22;11203;50.870;20.682;2023-01-10T05:45:52;4.80;99.90
21762;DHT22;11203;50.870;20.682;2023-01-10T05:48:18;4.90;99.90
21762;DHT22;11203;50.870;20.682;2023-01-10T05:50:44;4.80;99.90
21762;DHT22;11203;50.870;20.682;2023-01-10T05:53:11;4.80;99.90
21762;DHT22;11203;50.870;20.682;2023-01-10T05:55:37;4.80;99.90
21762;DHT22;11203;50.870;20.682;2023-01-10T05:58:03;4.70;99.90
21762;DHT22;11203;50.870;20.682;2023-01-10T06:00:29;4.80;99.90
21762;DHT22;11203;50.870;20.682;2023-01-10T06:02:56;4.80;99.90
21762;DHT22;11203;50.870;20.682;2023-01-10T06:05:23;4.80;99.90
21762;DHT22;11203;50.870;20.682;2023-01-10T06:07:49;4.70;99.90
21762;DHT22;11203;50.870;20.682;2023-01-10T06:10:16;4.70;99.90
21762;DHT22;11203;50.870;20.682;2023-01-10T06:12:43;4.70;94.90
21762;DHT22;11203;50.870;20.682;2023-01-10T06:15:11;4.70;67.80
21762;DHT22;11203;50.870;20.682;2023-01-10T06:17:37;4.70;50.70
21762;DHT22;11203;50.870;20.682;2023-01-10T06:20:04;4.60;1.00
21762;DHT22;11203;50.870;20.682;2023-01-10T06:22:30;4.60;1.00
21762;DHT22;11203;50.870;20.682;2023-01-10T06:24:56;4.50;1.00
21762;DHT22;11203;50.870;20.682;2023-01-10T06:27:22;4.60;1.00
21762;DHT22;11203;50.870;20.682;2023-01-10T06:29:48;4.50;1.00
21762;DHT22;11203;50.870;20.682;2023-01-10T06:32:15;4.50;1.00
21762;DHT22;11203;50.870;20.682;2023-01-10T06:34:41;4.50;1.00
21762;DHT22;11203;50.870;20.682;2023-01-10T06:37:07;4.50;1.00
21762;DHT22;11203;50.870;20.682;2023-01-10T06:39:33;4.50;1.00
21762;DHT22;11203;50.870;20.682;2023-01-10T06:41:59;4.50;10.60
21762;DHT22;11203;50.870;20.682;2023-01-10T06:44:25;4.50;62.50
21762;DHT22;11203;50.870;20.682;2023-01-10T06:46:51;4.50;60.70
21762;DHT22;11203;50.870;20.682;2023-01-10T06:49:17;4.40;52.10
21762;DHT22;11203;50.870;20.682;2023-01-10T06:51:44;4.50;80.50
21762;DHT22;11203;50.870;20.682;2023-01-10T06:54:09;4.40;27.50
21762;DHT22;11203;50.870;20.682;2023-01-10T06:56:36;4.40;1.00
21762;DHT22;11203;50.870;20.682;2023-01-10T06:59:02;4.40;16.70
21762;DHT22;11203;50.870;20.682;2023-01-10T07:01:28;4.40;1.00
21762;DHT22;11203;50.870;20.682;2023-01-10T07:03:54;4.40;1.00
21762;DHT22;11203;50.870;20.682;2023-01-10T07:06:20;4.40;1.00
21762;DHT22;11203;50.870;20.682;2023-01-10T07:08:46;4.40;1.00
21762;DHT22;11203;50.870;20.682;2023-01-10T07:11:14;4.40;1.00
21762;DHT22;11203;50.870;20.682;2023-01-10T07:13:41;4.40;1.00
21762;DHT22;11203;50.870;20.682;2023-01-10T07:16:10;4.40;1.00
21762;DHT22;11203;50.870;20.682;2023-01-10T07:18:38;4.40;1.00
21762;DHT22;11203;50.870;20.682;2023-01-10T07:21:06;4.30;1.00
21762;DHT22;11203;50.870;20.682;2023-01-10T07:23:32;4.40;1.00
21762;DHT22;11203;50.870;20.682;2023-01-10T07:26:04;4.40;1.00
21762;DHT22;11203;50.870;20.682;2023-01-10T07:28:32;4.40;1.00
21762;DHT22;11203;50.870;20.682;2023-01-10T07:31:03;4.40;1.00
21762;DHT22;11203;50.870;20.682;2023-01-10T07:33:30;4.30;46.70
21762;DHT22;11203;50.870;20.682;2023-01-10T07:35:59;4.30;92.10
21762;DHT22;11203;50.870;20.682;2023-01-10T07:38:26;4.40;99.90
21762;DHT22;11203;50.870;20.682;2023-01-10T07:40:52;4.40;71.00
21762;DHT22;11203;50.870;20.682;2023-01-10T07:43:18;4.30;51.70
21762;DHT22;11203;50.870;20.682;2023-01-10T07:45:44;4.40;28.70
21762;DHT22;11203;50.870;20.682;2023-01-10T07:48:10;4.10;56.40
21762;DHT22;11203;50.870;20.682;2023-01-10T07:50:37;4.40;37.00
21762;DHT22;11203;50.870;20.682;2023-01-10T07:53:05;4.30;70.40
21762;DHT22;11203;50.870;20.682;2023-01-10T07:55:34;4.40;99.90
21762;DHT22;11203;50.870;20.682;2023-01-10T07:58:03;4.30;99.90
21762;DHT22;11203;50.870;20.682;2023-01-10T08:00:33;4.40;99.90
21762;DHT22;11203;50.870;20.682;2023-01-10T08:02:59;4.30;99.90
21762;DHT22;11203;50.870;20.682;2023-01-10T08:05:26;4.40;99.90
21762;DHT22;11203;50.870;20.682;2023-01-10T08:07:52;4.40;99.90
21762;DHT22;11203;50.870;20.682;2023-01-10T08:10:20;4.40;99.90
21762;DHT22;11203;50.870;20.682;2023-01-10T08:12:46;4.40;99.90
21762;DHT22;11203;50.870;20.682;2023-01-10T08:15:14;4.40;99.90
21762;DHT22;11203;50.870;20.682;2023-01-10T08:17:40;4.40;99.90
21762;DHT22;11203;50.870;20.682;2023-01-10T08:20:07;4.40;99.90
21762;DHT22;11203;50.870;20.682;2023-01-10T08:22:34;4.50;99.90
21762;DHT22;11203;50.870;20.682;2023-01-10T08:25:01;4.50;99.90
21762;DHT22;11203;50.870;20.682;2023-01-10T08:27:26;4.40;99.90
21762;DHT22;11203;50.870;20.682;2023-01-10T08:29:53;4.50;99.90
21762;DHT22;11203;50.870;20.682;2023-01-10T08:32:18;4.40;99.90
21762;DHT22;11203;50.870;20.682;2023-01-10T08:34:45;4.50;99.90
21762;DHT22;11203;50.870;20.682;2023-01-10T08:37:14;4.50;99.90
21762;DHT22;11203;50.870;20.682;2023-01-10T08:39:40;4.50;94.00
21762;DHT22;11203;50.870;20.682;2023-01-10T08:42:06;4.40;62.50
21762;DHT22;11203;50.870;20.682;2023-01-10T08:44:32;4.40;8.40
21762;DHT22;11203;50.870;20.682;2023-01-10T08:46:58;4.40;1.00
21762;DHT22;11203;50.870;20.682;2023-01-10T08:49:25;4.40;1.00
21762;DHT22;11203;50.870;20.682;2023-01-10T08:51:51;4.40;1.00
21762;DHT22;11203;50.870;20.682;2023-01-10T08:54:17;4.40;1.00
21762;DHT22;11203;50.870;20.682;2023-01-10T08:56:43;4.40;1.00
21762;DHT22;11203;50.870;20.682;2023-01-10T08:59:09;4.40;1.00
21762;DHT22;11203;50.870;20.682;2023-01-10T09:01:35;4.50;1.00
21762;DHT22;11203;50.870;20.682;2023-01-10T09:04:01;4.50;1.00
21762;DHT22;11203;50.870;20.682;2023-01-10T09:06:27;4.50;32.00
21762;DHT22;11203;50.870;20.682;2023-01-10T09:08:53;4.50;1.00
21762;DHT22;11203;50.870;20.682;2023-01-10T09:11:19;4.50;3.50
21762;DHT22;11203;50.870;20.682;2023-01-10T09:13:48;4.50;1.00
21762;DHT22;11203;50.870;20.682;2023-01-10T09:16:15;4.50;1.00
21762;DHT22;11203;50.870;20.682;2023-01-10T09:18:42;4.50;1.00
21762;DHT22;11203;50.870;20.682;2023-01-10T09:21:08;4.50;1.00
21762;DHT22;11203;50.870;20.682;2023-01-10T09:23:34;4.60;1.00
21762;DHT22;11203;50.870;20.682;2023-01-10T09:26:00;4.50;1.00
21762;DHT22;11203;50.870;20.682;2023-01-10T09:28:27;4.50;1.00
21762;DHT22;11203;50.870;20.682;2023-01-10T09:30:53;4.60;1.00
21762;DHT22;11203;50.870;20.682;2023-01-10T09:33:19;4.60;1.00
21762;DHT22;11203;50.870;20.682;2023-01-10T09:35:45;4.60;1.00
21762;DHT22;11203;50.870;20.682;2023-01-10T09:38:14;4.60;1.00
21762;DHT22;11203;50.870;20.682;2023-01-10T09:40:50;4.60;1.00
21762;DHT22;11203;50.870;20.682;2023-01-10T09:52:05;4.60;1.00
21762;DHT22;11203;50.870;20.682;2023-01-10T09:54:42;4.60;1.00
21762;DHT22;11203;50.870;20.682;2023-01-10T09:57:27;4.60;1.00
21762;DHT22;11203;50.870;20.682;2023-01-10T09:59:53;4.60;1.00
21762;DHT22;11203;50.870;20.682;2023-01-10T10:02:31;4.70;1.00
21762;DHT22;11203;50.870;20.682;2023-01-10T10:07:56;4.70;1.00
21762;DHT22;11203;50.870;20.682;2023-01-10T10:10:29;4.70;1.00
21762;DHT22;11203;50.870;20.682;2023-01-10T10:17:07;4.80;1.00
21762;DHT22;11203;50.870;20.682;2023-01-10T10:19:32;4.80;1.00
21762;DHT22;11203;50.870;20.682;2023-01-10T10:22:18;4.90;1.00
21762;DHT22;11203;50.870;20.682;2023-01-10T10:25:06;4.90;1.00
21762;DHT22;11203;50.870;20.682;2023-01-10T10:28:06;5.00;1.00
21762;DHT22;11203;50.870;20.682;2023-01-10T10:30:45;4.90;1.00
21762;DHT22;11203;50.870;20.682;2023-01-10T10:36:38;4.90;27.60
21762;DHT22;11203;50.870;20.682;2023-01-10T10:39:19;5.00;49.80
21762;DHT22;11203;50.870;20.682;2023-01-10T10:41:51;5.00;36.90
21762;DHT22;11203;50.870;20.682;2023-01-10T10:46:47;5.00;70.70
21762;DHT22;11203;50.870;20.682;2023-01-10T10:49:21;5.00;86.70
21762;DHT22;11203;50.870;20.682;2023-01-10T10:51:58;5.00;87.70
21762;DHT22;11203;50.870;20.682;2023-01-10T10:54:25;5.00;80.70
21762;DHT22;11203;50.870;20.682;2023-01-10T10:56:53;5.00;55.00
21762;DHT22;11203;50.870;20.682;2023-01-10T10:59:21;5.00;67.80
21762;DHT22;11203;50.870;20.682;2023-01-10T11:01:48;5.00;58.40
21762;DHT22;11203;50.870;20.682;2023-01-10T11:04:21;4.90;1.00
21762;DHT22;11203;50.870;20.682;2023-01-10T11:06:48;4.90;1.00
21762;DHT22;11203;50.870;20.682;2023-01-10T11:09:18;4.90;1.00
21762;DHT22;11203;50.870;20.682;2023-01-10T11:11:55;4.90;1.00
21762;DHT22;11203;50.870;20.682;2023-01-10T11:14:59;4.90;1.00
21762;DHT22;11203;50.870;20.682;2023-01-10T11:17:28;4.90;1.00
21762;DHT22;11203;50.870;20.682;2023-01-10T11:22:43;4.90;1.00
21762;DHT22;11203;50.870;20.682;2023-01-10T11:25:17;4.90;1.00
21762;DHT22;11203;50.870;20.682;2023-01-10T11:27:52;4.90;1.00
21762;DHT22;11203;50.870;20.682;2023-01-10T11:30:26;4.90;1.00
21762;DHT22;11203;50.870;20.682;2023-01-10T11:32:55;4.80;1.00
21762;DHT22;11203;50.870;20.682;2023-01-10T11:35:36;4.90;1.00
21762;DHT22;11203;50.870;20.682;2023-01-10T11:41:45;4.90;1.00
21762;DHT22;11203;50.870;20.682;2023-01-10T11:46:58;4.90;1.00
21762;DHT22;11203;50.870;20.682;2023-01-10T11:49:38;4.90;1.00
21762;DHT22;11203;50.870;20.682;2023-01-10T11:52:24;4.90;1.00
21762;DHT22;11203;50.870;20.682;2023-01-10T11:54:53;4.90;1.00
21762;DHT22;11203;50.870;20.682;2023-01-10T11:57:24;4.80;1.00
21762;DHT22;11203;50.870;20.682;2023-01-10T11:59:55;4.90;3.80
21762;DHT22;11203;50.870;20.682;2023-01-10T12:02:27;4.80;1.00
21762;DHT22;11203;50.870;20.682;2023-01-10T12:04:57;4.80;1.00
21762;DHT22;11203;50.870;20.682;2023-01-10T12:07:24;4.80;1.00
21762;DHT22;11203;50.870;20.682;2023-01-10T12:10:01;4.80;1.00
21762;DHT22;11203;50.870;20.682;2023-01-10T12:12:33;4.80;1.00
21762;DHT22;11203;50.870;20.682;2023-01-10T12:15:26;4.70;1.00
21762;DHT22;11203;50.870;20.682;2023-01-10T12:17:59;4.70;1.00
21762;DHT22;11203;50.870;20.682;2023-01-10T12:20:28;4.70;1.00
21762;DHT22;11203;50.870;20.682;2023-01-10T12:23:04;4.60;1.00
21762;DHT22;11203;50.870;20.682;2023-01-10T12:28:03;4.60;1.00
21762;DHT22;11203;50.870;20.682;2023-01-10T12:30:57;4.60;1.00
21762;DHT22;11203;50.870;20.682;2023-01-10T12:33:33;4.60;1.00
21762;DHT22;11203;50.870;20.682;2023-01-10T12:36:24;4.60;1.00
21762;DHT22;11203;50.870;20.682;2023-01-10T12:44:31;4.60;1.00
21762;DHT22;11203;50.870;20.682;2023-01-10T12:47:14;4.50;1.00
21762;DHT22;11203;50.870;20.682;2023-01-10T12:50:17;4.50;1.00
21762;DHT22;11203;50.870;20.682;2023-01-10T12:55:48;4.50;1.00
21762;DHT22;11203;50.870;20.682;2023-01-10T12:58:41;4.50;1.00
21762;DHT22;11203;50.870;20.682;2023-01-10T13:01:17;4.50;1.00
21762;DHT22;11203;50.870;20.682;2023-01-10T13:03:52;4.50;1.00
21762;DHT22;11203;50.870;20.682;2023-01-10T13:06:41;4.50;1.00
21762;DHT22;11203;50.870;20.682;2023-01-10T13:09:20;4.50;4.40
21762;DHT22;11203;50.870;20.682;2023-01-10T13:17:25;4.50;1.00
21762;DHT22;11203;50.870;20.682;2023-01-10T13:22:54;4.40;1.00
21762;DHT22;11203;50.870;20.682;2023-01-10T13:25:24;4.40;1.00
21762;DHT22;11203;50.870;20.682;2023-01-10T13:28:19;4.40;1.00
21762;DHT22;11203;50.870;20.682;2023-01-10T13:30:57;4.40;1.00
21762;DHT22;11203;50.870;20.682;2023-01-10T13:36:40;4.40;16.80
21762;DHT22;11203;50.870;20.682;2023-01-10T13:39:41;4.50;13.60
21762;DHT22;11203;50.870;20.682;2023-01-10T13:45:29;4.40;46.10
21762;DHT22;11203;50.870;20.682;2023-01-10T13:48:00;4.50;44.70
21762;DHT22;11203;50.870;20.682;2023-01-10T14:03:55;4.40;59.00
21762;DHT22;11203;50.870;20.682;2023-01-10T14:09:42;4.40;89.20
21762;DHT22;11203;50.870;20.682;2023-01-10T14:14:24;4.40;36.30
21762;DHT22;11203;50.870;20.682;2023-01-10T14:19:46;4.40;6.20
21762;DHT22;11203;50.870;20.682;2023-01-10T14:22:25;4.40;20.40
21762;DHT22;11203;50.870;20.682;2023-01-10T14:24:56;4.40;43.70
21762;DHT22;11203;50.870;20.682;2023-01-10T14:27:34;4.30;12.60
21762;DHT22;11203;50.870;20.682;2023-01-10T14:30:05;4.30;18.90
21762;DHT22;11203;50.870;20.682;2023-01-10T14:32:37;4.30;25.50
21762;DHT22;11203;50.870;20.682;2023-01-10T14:35:15;4.30;31.40
21762;DHT22;11203;50.870;20.682;2023-01-10T14:37:46;4.30;54.90
21762;DHT22;11203;50.870;20.682;2023-01-10T14:40:42;4.30;11.30
21762;DHT22;11203;50.870;20.682;2023-01-10T14:43:14;4.30;44.60
21762;DHT22;11203;50.870;20.682;2023-01-10T14:45:52;4.30;8.00
21762;DHT22;11203;50.870;20.682;2023-01-10T14:56:27;4.20;1.00
21762;DHT22;11203;50.870;20.682;2023-01-10T15:01:46;4.20;35.80
21762;DHT22;11203;50.870;20.682;2023-01-10T15:04:17;4.20;26.70
21762;DHT22;11203;50.870;20.682;2023-01-10T15:06:57;4.20;11.50
21762;DHT22;11203;50.870;20.682;2023-01-10T15:09:37;4.20;2.50
21762;DHT22;11203;50.870;20.682;2023-01-10T15:12:06;4.10;18.80
21762;DHT22;11203;50.870;20.682;2023-01-10T15:14:35;4.20;5.60
21762;DHT22;11203;50.870;20.682;2023-01-10T15:17:03;4.10;18.40
21762;DHT22;11203;50.870;20.682;2023-01-10T15:19:36;4.20;1.00
21762;DHT22;11203;50.870;20.682;2023-01-10T15:22:26;4.10;1.00
21762;DHT22;11203;50.870;20.682;2023-01-10T15:25:23;4.10;1.00
21762;DHT22;11203;50.870;20.682;2023-01-10T15:27:51;4.10;1.00
21762;DHT22;11203;50.870;20.682;2023-01-10T15:30:20;4.10;1.00
21762;DHT22;11203;50.870;20.682;2023-01-10T15:32:49;4.10;21.20
21762;DHT22;11203;50.870;20.682;2023-01-10T15:35:22;4.00;13.30
21762;DHT22;11203;50.870;20.682;2023-01-10T15:38:02;4.10;4.30
21762;DHT22;11203;50.870;20.682;2023-01-10T15:40:35;4.10;10.80
21762;DHT22;11203;50.870;20.682;2023-01-10T15:45:38;4.00;41.80
21762;DHT22;11203;50.870;20.682;2023-01-10T15:48:33;4.00;45.70
21762;DHT22;11203;50.870;20.682;2023-01-10T15:51:22;4.00;17.40
21762;DHT22;11203;50.870;20.682;2023-01-10T15:59:26;4.00;53.70
21762;DHT22;11203;50.870;20.682;2023-01-10T16:02:03;3.90;37.30
21762;DHT22;11203;50.870;20.682;2023-01-10T16:04:36;3.90;45.20
21762;DHT22;11203;50.870;20.682;2023-01-10T16:07:06;3.90;36.90
21762;DHT22;11203;50.870;20.682;2023-01-10T16:09:36;3.90;33.60
21762;DHT22;11203;50.870;20.682;2023-01-10T16:12:04;4.00;47.60
21762;DHT22;11203;50.870;20.682;2023-01-10T16:14:48;3.90;21.40
21762;DHT22;11203;50.870;20.682;2023-01-10T16:17:14;4.00;29.50
21762;DHT22;11203;50.870;20.682;2023-01-10T16:19:40;4.00;32.50
21762;DHT22;11203;50.870;20.682;2023-01-10T16:22:07;4.00;5.50
21762;DHT22;11203;50.870;20.682;2023-01-10T16:24:36;3.90;1.00
21762;DHT22;11203;50.870;20.682;2023-01-10T16:27:08;3.90;1.00
21762;DHT22;11203;50.870;20.682;2023-01-10T16:29:34;3.90;1.00
21762;DHT22;11203;50.870;20.682;2023-01-10T16:32:10;3.90;1.00
21762;DHT22;11203;50.870;20.682;2023-01-10T16:34:38;3.90;1.00
21762;DHT22;11203;50.870;20.682;2023-01-10T16:37:04;3.80;1.00
21762;DHT22;11203;50.870;20.682;2023-01-10T16:39:30;3.80;1.00
21762;DHT22;11203;50.870;20.682;2023-01-10T16:41:56;3.80;1.00
21762;DHT22;11203;50.870;20.682;2023-01-10T16:44:40;3.70;1.00
21762;DHT22;11203;50.870;20.682;2023-01-10T16:47:07;3.70;1.00
21762;DHT22;11203;50.870;20.682;2023-01-10T16:49:33;3.70;1.00
21762;DHT22;11203;50.870;20.682;2023-01-10T16:51:59;3.60;4.30
21762;DHT22;11203;50.870;20.682;2023-01-10T16:54:25;3.70;44.70
21762;DHT22;11203;50.870;20.682;2023-01-10T16:56:53;3.70;39.30
21762;DHT22;11203;50.870;20.682;2023-01-10T16:59:19;3.70;44.90
21762;DHT22;11203;50.870;20.682;2023-01-10T17:01:50;3.70;12.40
21762;DHT22;11203;50.870;20.682;2023-01-10T17:04:24;3.80;44.60
21762;DHT22;11203;50.870;20.682;2023-01-10T17:06:56;3.80;63.20
21762;DHT22;11203;50.870;20.682;2023-01-10T17:09:24;3.80;90.80
21762;DHT22;11203;50.870;20.682;2023-01-10T17:11:58;3.80;55.80
21762;DHT22;11203;50.870;20.682;2023-01-10T17:14:34;3.80;16.70
21762;DHT22;11203;50.870;20.682;2023-01-10T17:17:01;3.80;1.00
21762;DHT22;11203;50.870;20.682;2023-01-10T17:19:28;3.80;1.00
21762;DHT22;11203;50.870;20.682;2023-01-10T17:21:54;3.80;1.00
21762;DHT22;11203;50.870;20.682;2023-01-10T17:24:20;3.90;20.40
21762;DHT22;11203;50.870;20.682;2023-01-10T17:26:46;3.90;9.00
21762;DHT22;11203;50.870;20.682;2023-01-10T17:29:12;3.80;10.80
21762;DHT22;11203;50.870;20.682;2023-01-10T17:31:40;3.80;15.00
21762;DHT22;11203;50.870;20.682;2023-01-10T17:34:06;3.80;16.50
21762;DHT22;11203;50.870;20.682;2023-01-10T17:36:32;3.90;4.30
21762;DHT22;11203;50.870;20.682;2023-01-10T17:39:03;3.90;9.30
21762;DHT22;11203;50.870;20.682;2023-01-10T17:41:31;3.90;1.00
21762;DHT22;11203;50.870;20.682;2023-01-10T17:43:57;3.90;1.00
21762;DHT22;11203;50.870;20.682;2023-01-10T17:46:23;3.90;1.00
21762;DHT22;11203;50.870;20.682;2023-01-10T17:48:49;3.90;6.60
21762;DHT22;11203;50.870;20.682;2023-01-10T17:51:22;3.90;1.00
21762;DHT22;11203;50.870;20.682;2023-01-10T17:53:50;3.90;8.20
21762;DHT22;11203;50.870;20.682;2023-01-10T17:56:16;3.90;20.90
21762;DHT22;11203;50.870;20.682;2023-01-10T17:58:43;3.90;12.90
21762;DHT22;11203;50.870;20.682;2023-01-10T18:01:17;3.90;1.00
21762;DHT22;11203;50.870;20.682;2023-01-10T18:03:48;3.90;1.00
21762;DHT22;11203;50.870;20.682;2023-01-10T18:06:16;3.90;11.20
21762;DHT22;11203;50.870;20.682;2023-01-10T18:08:43;3.90;1.00
21762;DHT22;11203;50.870;20.682;2023-01-10T18:11:09;3.90;8.90
21762;DHT22;11203;50.870;20.682;2023-01-10T18:13:35;3.90;14.10